EST,Max TemperatureF,Mean TemperatureF,Min TemperatureF,Max Dew PointF,MeanDew PointF,Min DewpointF,Max Humidity, Mean Humidity, Min Humidity, Max Sea Level PressureIn, Mean Sea Level PressureIn, Min Sea Level PressureIn, Max VisibilityMiles, Mean VisibilityMiles, Min VisibilityMiles, Max Wind SpeedMPH, Mean Wind SpeedMPH, Max Gust SpeedMPH,PrecipitationIn, CloudCover, Events, WindDirDegrees
2013-1-1,21,10,0,16,7,-2,93,83,68,30.06,29.99,29.90,10,10,6,15,6,23,0.00,6,,236
2013-1-2,19,16,12,18,14,5,100,89,73,30.08,30.01,29.88,10,9,3,14,7,18,0.00,7,,127
2013-1-3,26,22,17,25,19,16,100,91,74,30.02,29.91,29.79,10,8,1,23,8,30,0.00,7,,248
2013-1-4,32,27,24,25,22,18,93,78,69,30.01,29.80,29.72,10,10,7,23,14,32,0.00,6,,253
2013-1-5,30,26,23,27,23,19,100,86,74,30.16,30.02,29.81,10,10,10,15,9,20,0.00,7,,62
2013-1-6,30,26,21,27,22,16,100,88,69,30.20,29.95,29.76,10,8,0,13,8,16,0.00,7,,35
2013-1-7,37,28,19,30,25,16,93,81,70,30.21,29.97,29.81,10,10,10,22,10,38,0.00,7,,187
2013-1-8,41,34,28,32,29,27,100,83,61,30.10,30.01,29.87,10,9,5,15,7,17,0.00,0,,189
2013-1-9,37,34,32,34,29,25,93,78,70,30.34,29.91,29.72,10,9,1,23,12,38,0.04,7,,236
2013-1-10,39,34,28,34,28,27,93,81,61,30.49,30.36,30.12,10,10,10,24,10,30,0.00,2,,153
2013-1-11,42,38,35,39,36,34,100,96,87,30.11,29.77,29.64,10,5,0,25,16,31,0.18,7,,137
2013-1-12,48,40,33,45,37,28,100,89,70,29.90,29.69,29.57,10,7,0,20,11,36,0.00,7,,198
2013-1-13,32,28,24,30,27,25,100,92,80,29.91,29.85,29.81,10,8,2,13,5,18,0.00,8,,300
2013-1-14,26,20,15,23,15,9,100,82,55,30.28,30.16,29.88,10,9,1,16,10,23,0.00,6,,244
2013-1-15,28,17,6,25,14,5,100,81,59,30.29,30.18,29.97,10,10,3,12,7,21,0.00,3,,223
2013-1-16,30,22,15,28,22,9,100,85,68,29.96,29.70,29.52,10,8,0,25,11,37,0.00,8,,237
2013-1-17,15,6,-2,12,2,-8,100,83,58,30.21,30.13,29.93,10,7,2,20,11,25,0.00,7,,299
2013-1-18,23,11,1,21,10,0,100,93,73,30.25,30.04,29.70,10,6,0,15,8,,0.13,6,,179
2013-1-19,28,22,17,28,21,16,100,95,86,29.79,29.60,29.33,10,6,0,20,5,38,0.07,8,,83
2013-1-20,21,12,0,21,7,-2,100,89,67,30.05,29.86,29.34,10,5,0,32,16,44,0.01,6,,296
2013-1-21,10,2,-7,5,-1,-9,100,86,73,30.01,29.89,29.80,10,6,0,16,5,21,0.00,7,,263
2013-1-22,5,-6,-14,-6,-14,-20,92,73,43,30.15,30.09,29.96,10,8,2,10,4,,0.00,4,,71
2013-1-23,14,5,-4,5,-2,-8,100,80,57,30.22,30.06,29.96,10,9,2,14,5,20,0.00,6,,233
2013-1-24,12,0,-11,3,-6,-17,100,78,44,30.58,30.47,30.24,10,10,10,10,5,,0.00,0,,338
2013-1-25,19,12,5,18,10,3,100,91,85,30.40,30.10,29.95,10,6,1,17,7,,0.00,8,,115
2013-1-26,32,16,1,18,11,0,100,85,51,30.35,30.22,30.01,10,9,0,8,3,,0.00,3,,98
2013-1-27,28,21,14,27,21,12,100,93,86,30.36,30.25,30.08,10,9,2,13,7,16,0.00,8,,137
2013-1-28,33,30,28,30,29,27,100,96,87,30.06,29.90,29.81,10,5,1,13,8,,0.06,8,,97
2013-1-29,35,32,28,36,32,27,100,98,93,29.96,29.65,29.45,10,4,0,18,11,23,0.09,8,,99
2013-1-30,33,22,10,34,28,9,100,97,92,29.45,29.26,29.11,10,5,0,18,13,29,0.11,8,,347
2013-1-31,14,8,3,10,5,0,100,89,79,29.79,29.49,29.15,10,4,0,20,12,26,0.00,8,,336